createdAt,value
2017-01-24T00:00:07.937Z,101371
2017-01-24T00:01:07.978Z,101368
2017-01-24T00:02:07.540Z,101359
2017-01-24T00:03:07.572Z,101368
2017-01-24T00:04:08.245Z,101363
2017-01-24T00:05:07.650Z,101370
2017-01-24T00:06:07.665Z,101375
2017-01-24T00:07:08.310Z,101368
2017-01-24T00:08:08.290Z,101368
2017-01-24T00:09:08.334Z,101371
2017-01-24T00:10:08.413Z,101370
2017-01-24T00:11:08.783Z,101371
2017-01-24T00:12:07.905Z,101372
2017-01-24T00:13:08.559Z,101375
2017-01-24T00:14:08.773Z,101376
2017-01-24T00:15:08.686Z,101375
2017-01-24T00:16:08.747Z,101369
2017-01-24T00:17:08.794Z,101373
2017-01-24T00:18:08.855Z,101368
2017-01-24T00:19:09.517Z,101369
2017-01-24T00:20:08.874Z,101366
2017-01-24T00:21:08.393Z,101367
2017-01-24T00:22:08.451Z,101360
2017-01-24T00:23:08.538Z,101364
2017-01-24T00:24:09.158Z,101367
2017-01-24T00:25:08.737Z,101359
2017-01-24T00:26:09.227Z,101363
2017-01-24T00:27:08.743Z,101361
2017-01-24T00:28:08.757Z,101363
2017-01-24T00:29:08.803Z,101362
2017-01-24T00:30:08.903Z,101357
2017-01-24T00:31:09.515Z,101364
2017-01-24T00:32:09.590Z,101361
2017-01-24T00:33:09.139Z,101360
2017-01-24T00:34:09.191Z,101351
2017-01-24T00:35:09.776Z,101356
2017-01-24T00:36:09.863Z,101358
2017-01-24T00:37:09.987Z,101355
2017-01-24T00:38:09.447Z,101360
2017-01-24T00:39:09.493Z,101360
2017-01-24T00:40:10.062Z,101350
2017-01-24T00:41:10.129Z,101359
2017-01-24T00:42:09.676Z,101354
2017-01-24T00:43:09.695Z,101359
2017-01-24T00:44:09.769Z,101357
2017-01-24T00:45:09.839Z,101362
2017-01-24T00:46:09.923Z,101358
2017-01-24T00:47:10.459Z,101357
2017-01-24T00:48:09.935Z,101351
2017-01-24T00:49:10.497Z,101352
2017-01-24T00:50:10.022Z,101348
2017-01-24T00:51:10.055Z,101345
2017-01-24T00:52:10.594Z,101351
2017-01-24T00:53:10.095Z,101351
2017-01-24T00:54:10.702Z,101342
2017-01-24T00:55:10.239Z,101347
2017-01-24T00:56:10.849Z,101347
2017-01-24T00:57:10.343Z,101348
2017-01-24T00:58:10.877Z,101349
2017-01-24T00:59:10.980Z,101348
2017-01-24T01:00:10.381Z,101346
2017-01-24T01:01:10.481Z,101346
2017-01-24T01:02:10.531Z,101345
2017-01-24T01:03:10.560Z,101334
2017-01-24T01:04:10.594Z,101349
2017-01-24T01:05:10.637Z,101342
2017-01-24T01:06:11.279Z,101340
2017-01-24T01:07:11.289Z,101339
2017-01-24T01:08:11.429Z,101337
2017-01-24T01:09:11.343Z,101338
2017-01-24T01:10:10.866Z,101339
2017-01-24T01:11:11.467Z,101337
2017-01-24T01:12:11.515Z,101335
2017-01-24T01:13:11.562Z,101340
2017-01-24T01:14:11.093Z,101340
2017-01-24T01:15:11.124Z,101342
2017-01-24T01:16:11.730Z,101340
2017-01-24T01:17:11.799Z,101334
2017-01-24T01:18:11.868Z,101340
2017-01-24T01:19:11.403Z,101342
2017-01-24T01:20:12.031Z,101341
2017-01-24T01:21:12.065Z,101344
2017-01-24T01:22:11.579Z,101347
2017-01-24T01:23:11.629Z,101346
2017-01-24T01:24:11.734Z,101343
2017-01-24T01:25:12.333Z,101344
2017-01-24T01:26:11.895Z,101346
2017-01-24T01:27:11.951Z,101342
2017-01-24T01:28:12.000Z,101341
2017-01-24T01:29:12.580Z,101340
2017-01-24T01:30:12.588Z,101340
2017-01-24T01:31:12.189Z,101339
2017-01-24T01:32:12.162Z,101342
2017-01-24T01:33:12.774Z,101332
2017-01-24T01:34:12.874Z,101340
2017-01-24T01:35:12.957Z,101334
2017-01-24T01:36:12.936Z,101341
2017-01-24T01:37:13.025Z,101337
2017-01-24T01:38:13.064Z,101344
2017-01-24T01:39:12.545Z,101344
2017-01-24T01:40:12.653Z,101342
2017-01-24T01:41:12.729Z,101338
2017-01-24T01:42:12.869Z,101347
2017-01-24T01:43:12.864Z,101346
2017-01-24T01:44:13.450Z,101347
2017-01-24T01:45:12.999Z,101349
2017-01-24T01:46:13.597Z,101354
2017-01-24T01:47:13.594Z,101348
2017-01-24T01:48:14.197Z,101352
2017-01-24T01:49:13.683Z,101350
2017-01-24T01:50:13.210Z,101352
2017-01-24T01:51:13.348Z,101351
2017-01-24T01:52:13.872Z,101354
2017-01-24T01:53:13.900Z,101348
2017-01-24T01:54:13.427Z,101352
2017-01-24T01:55:14.060Z,101349
2017-01-24T01:56:14.195Z,101347
2017-01-24T01:57:13.617Z,101344
2017-01-24T01:58:14.237Z,101344
2017-01-24T01:59:13.753Z,101345
2017-01-24T02:00:13.818Z,101343
2017-01-24T02:01:14.452Z,101337
2017-01-24T02:02:15.177Z,101340
2017-01-24T02:03:13.940Z,101338
2017-01-24T02:04:15.083Z,101343
2017-01-24T02:05:14.548Z,101339
2017-01-24T02:06:14.621Z,101340
2017-01-24T02:07:14.112Z,101339
2017-01-24T02:08:14.124Z,101343
2017-01-24T02:09:14.701Z,101336
2017-01-24T02:10:14.751Z,101336
2017-01-24T02:11:14.367Z,101341
2017-01-24T02:12:14.875Z,101341
2017-01-24T02:13:14.957Z,101330
2017-01-24T02:14:14.501Z,101332
2017-01-24T02:15:15.061Z,101327
2017-01-24T02:16:15.075Z,101334
2017-01-24T02:17:15.183Z,101334
2017-01-24T02:18:15.187Z,101332
2017-01-24T02:19:14.689Z,101334
2017-01-24T02:20:14.708Z,101335
2017-01-24T02:21:15.294Z,101335
2017-01-24T02:22:15.310Z,101332
2017-01-24T02:23:15.900Z,101330
2017-01-24T02:24:15.566Z,101328
2017-01-24T02:25:14.842Z,101331
2017-01-24T02:26:14.912Z,101329
2017-01-24T02:27:14.998Z,101325
2017-01-24T02:28:15.583Z,101326
2017-01-24T02:29:15.558Z,101317
2017-01-24T02:30:15.638Z,101329
2017-01-24T02:31:15.626Z,101329
2017-01-24T02:32:15.141Z,101327
2017-01-24T02:33:15.219Z,101324
2017-01-24T02:34:15.848Z,101326
2017-01-24T02:35:15.388Z,101324
2017-01-24T02:36:15.941Z,101330
2017-01-24T02:37:15.406Z,101322
2017-01-24T02:38:16.502Z,101330
2017-01-24T02:39:16.060Z,101330
2017-01-24T02:40:15.551Z,101329
2017-01-24T02:41:15.653Z,101327
2017-01-24T02:42:15.641Z,101329
2017-01-24T02:43:15.717Z,101325
2017-01-24T02:44:15.748Z,101317
2017-01-24T02:45:16.374Z,101323
2017-01-24T02:46:15.875Z,101318
2017-01-24T02:47:16.461Z,101322
2017-01-24T02:48:16.686Z,101324
2017-01-24T02:49:16.578Z,101320
2017-01-24T02:50:17.492Z,101321
2017-01-24T02:51:16.128Z,101322
2017-01-24T02:52:16.689Z,101317
2017-01-24T02:53:16.764Z,101320
2017-01-24T02:54:16.264Z,101319
2017-01-24T02:55:16.898Z,101319
2017-01-24T02:56:16.978Z,101313
2017-01-24T02:57:16.496Z,101318
2017-01-24T02:58:16.643Z,101307
2017-01-24T02:59:17.728Z,101312
2017-01-24T03:00:16.726Z,101312
2017-01-24T03:01:16.803Z,101310
2017-01-24T03:02:17.639Z,101316
2017-01-24T03:03:17.406Z,101305
2017-01-24T03:04:17.422Z,101312
2017-01-24T03:05:16.908Z,101309
2017-01-24T03:06:16.989Z,101317
2017-01-24T03:07:17.660Z,101316
2017-01-24T03:08:17.121Z,101313
2017-01-24T03:09:17.131Z,101316
2017-01-24T03:10:17.203Z,101313
2017-01-24T03:11:17.236Z,101311
2017-01-24T03:12:17.820Z,101303
2017-01-24T03:13:17.805Z,101311
2017-01-24T03:14:17.315Z,101314
2017-01-24T03:15:17.880Z,101312
2017-01-24T03:16:17.340Z,101311
2017-01-24T03:17:17.430Z,101313
2017-01-24T03:18:17.404Z,101307
2017-01-24T03:19:17.513Z,101313
2017-01-24T03:20:18.212Z,101312
2017-01-24T03:21:19.118Z,101312
2017-01-24T03:22:17.601Z,101315
2017-01-24T03:23:17.650Z,101317
2017-01-24T03:24:17.741Z,101316
2017-01-24T03:25:18.363Z,101314
2017-01-24T03:26:18.442Z,101311
2017-01-24T03:27:17.896Z,101313
2017-01-24T03:28:17.973Z,101309
2017-01-24T03:29:19.200Z,101304
2017-01-24T03:30:18.145Z,101310
2017-01-24T03:31:18.239Z,101309
2017-01-24T03:32:18.347Z,101298
2017-01-24T03:33:18.364Z,101306
2017-01-24T03:34:18.972Z,101311
2017-01-24T03:35:19.022Z,101304
2017-01-24T03:36:19.065Z,101313
2017-01-24T03:37:19.153Z,101309
2017-01-24T03:38:18.668Z,101313
2017-01-24T03:39:19.236Z,101310
2017-01-24T03:40:18.671Z,101317
2017-01-24T03:41:19.291Z,101320
2017-01-24T03:42:19.268Z,101310
2017-01-24T03:43:18.803Z,101318
2017-01-24T03:44:18.817Z,101321
2017-01-24T03:45:18.870Z,101323
2017-01-24T03:46:19.408Z,101316
2017-01-24T03:47:18.931Z,101324
2017-01-24T03:48:19.505Z,101316
2017-01-24T03:49:19.540Z,101324
2017-01-24T03:50:19.752Z,101326
2017-01-24T03:51:19.158Z,101326
2017-01-24T03:52:19.759Z,101325
2017-01-24T03:53:19.816Z,101324
2017-01-24T03:54:19.869Z,101327
2017-01-24T03:55:19.960Z,101329
2017-01-24T03:56:20.049Z,101327
2017-01-24T03:57:20.121Z,101333
2017-01-24T03:58:20.109Z,101330
2017-01-24T03:59:20.175Z,101333
2017-01-24T04:00:19.661Z,101329
2017-01-24T04:01:20.231Z,101329
2017-01-24T04:02:19.710Z,101332
2017-01-24T04:03:19.787Z,101333
2017-01-24T04:04:20.346Z,101335
2017-01-24T04:05:20.592Z,101335
2017-01-24T04:06:19.954Z,101335
2017-01-24T04:07:19.972Z,101336
2017-01-24T04:08:20.541Z,101340
2017-01-24T04:09:20.098Z,101339
2017-01-24T04:10:20.644Z,101335
2017-01-24T04:11:20.678Z,101340
2017-01-24T04:12:20.714Z,101340
2017-01-24T04:13:20.180Z,101340
2017-01-24T04:14:20.722Z,101339
2017-01-24T04:15:20.240Z,101340
2017-01-24T04:16:20.768Z,101340
2017-01-24T04:17:20.309Z,101338
2017-01-24T04:18:20.914Z,101333
2017-01-24T04:19:20.405Z,101339
2017-01-24T04:20:20.972Z,101336
2017-01-24T04:21:20.502Z,101337
2017-01-24T04:22:21.039Z,101339
2017-01-24T04:23:20.495Z,101340
2017-01-24T04:24:20.533Z,101334
2017-01-24T04:25:21.193Z,101339
2017-01-24T04:26:20.683Z,101339
2017-01-24T04:27:20.712Z,101341
2017-01-24T04:28:20.738Z,101339
2017-01-24T04:29:20.801Z,101333
2017-01-24T04:30:21.352Z,101331
2017-01-24T04:31:21.481Z,101326
2017-01-24T04:32:21.035Z,101329
2017-01-24T04:33:21.124Z,101335
2017-01-24T04:34:21.754Z,101334
2017-01-24T04:35:21.230Z,101336
2017-01-24T04:36:21.843Z,101333
2017-01-24T04:37:21.805Z,101336
2017-01-24T04:38:21.343Z,101337
2017-01-24T04:39:21.467Z,101330
2017-01-24T04:40:21.517Z,101339
2017-01-24T04:41:22.077Z,101340
2017-01-24T04:42:21.563Z,101342
2017-01-24T04:43:22.193Z,101342
2017-01-24T04:44:22.248Z,101336
2017-01-24T04:45:21.760Z,101345
2017-01-24T04:46:22.460Z,101346
2017-01-24T04:47:21.883Z,101346
2017-01-24T04:48:22.439Z,101342
2017-01-24T04:49:22.508Z,101348
2017-01-24T04:50:23.138Z,101351
2017-01-24T04:51:22.571Z,101345
2017-01-24T04:52:22.652Z,101346
2017-01-24T04:53:22.767Z,101344
2017-01-24T04:54:22.738Z,101348
2017-01-24T04:55:22.953Z,101346
2017-01-24T04:56:22.761Z,101345
2017-01-24T04:57:22.909Z,101346
2017-01-24T04:58:22.444Z,101342
2017-01-24T04:59:22.515Z,101348
2017-01-24T05:00:23.020Z,101338
2017-01-24T05:01:23.083Z,101348
2017-01-24T05:02:23.142Z,101348
2017-01-24T05:03:23.174Z,101347
2017-01-24T05:04:22.700Z,101342
2017-01-24T05:05:23.219Z,101349
2017-01-24T05:06:23.292Z,101340
2017-01-24T05:07:23.288Z,101348
2017-01-24T05:08:23.367Z,101342
2017-01-24T05:09:23.375Z,101346
2017-01-24T05:10:23.480Z,101349
2017-01-24T05:11:23.512Z,101348
2017-01-24T05:12:22.988Z,101351
2017-01-24T05:13:23.129Z,101350
2017-01-24T05:14:23.713Z,101349
2017-01-24T05:15:23.154Z,101346
2017-01-24T05:16:23.738Z,101351
2017-01-24T05:17:23.738Z,101355
2017-01-24T05:18:23.842Z,101358
2017-01-24T05:19:23.290Z,101357
2017-01-24T05:20:23.944Z,101355
2017-01-24T05:21:23.962Z,101361
2017-01-24T05:22:23.512Z,101359
2017-01-24T05:23:24.144Z,101362
2017-01-24T05:24:24.154Z,101363
2017-01-24T05:25:24.193Z,101361
2017-01-24T05:26:24.535Z,101358
2017-01-24T05:27:24.207Z,101363
2017-01-24T05:28:24.992Z,101368
2017-01-24T05:29:23.854Z,101362
2017-01-24T05:30:23.876Z,101373
2017-01-24T05:31:24.511Z,101369
2017-01-24T05:32:24.051Z,101369
2017-01-24T05:33:24.609Z,101375
2017-01-24T05:34:24.118Z,101375
2017-01-24T05:35:24.161Z,101375
2017-01-24T05:36:24.716Z,101376
2017-01-24T05:37:24.719Z,101374
2017-01-24T05:38:25.093Z,101378
2017-01-24T05:39:24.276Z,101369
2017-01-24T05:40:24.368Z,101378
2017-01-24T05:41:24.450Z,101376
2017-01-24T05:42:24.971Z,101379
2017-01-24T05:43:24.499Z,101379
2017-01-24T05:44:25.142Z,101383
2017-01-24T05:45:25.161Z,101382
2017-01-24T05:46:25.968Z,101382
2017-01-24T05:47:26.711Z,101369
2017-01-24T05:48:24.937Z,101369
2017-01-24T05:49:24.948Z,101375
2017-01-24T05:50:25.434Z,101379
2017-01-24T05:51:24.941Z,101375
2017-01-24T05:52:25.576Z,101376
2017-01-24T05:53:25.599Z,101380
2017-01-24T05:54:25.080Z,101382
2017-01-24T05:55:25.702Z,101388
2017-01-24T05:56:25.180Z,101381
2017-01-24T05:57:25.242Z,101372
2017-01-24T05:58:25.755Z,101378
2017-01-24T05:59:25.872Z,101379
2017-01-24T06:00:25.396Z,101378
2017-01-24T06:01:25.922Z,101380
2017-01-24T06:02:25.999Z,101379
2017-01-24T06:03:25.544Z,101381
2017-01-24T06:04:25.604Z,101379
2017-01-24T06:05:26.160Z,101379
2017-01-24T06:06:26.216Z,101381
2017-01-24T06:07:26.260Z,101371
2017-01-24T06:08:25.751Z,101376
2017-01-24T06:09:26.344Z,101374
2017-01-24T06:10:26.416Z,101380
2017-01-24T06:11:27.131Z,101383
2017-01-24T06:12:26.017Z,101383
2017-01-24T06:13:26.593Z,101388
2017-01-24T06:14:26.101Z,101384
2017-01-24T06:15:26.777Z,101391
2017-01-24T06:16:26.319Z,101397
2017-01-24T06:17:26.885Z,101399
2017-01-24T06:18:27.052Z,101395
2017-01-24T06:19:27.035Z,101399
2017-01-24T06:20:27.036Z,101397
2017-01-24T06:21:26.543Z,101401
2017-01-24T06:22:27.790Z,101402
2017-01-24T06:23:27.127Z,101403
2017-01-24T06:24:27.214Z,101403
2017-01-24T06:25:26.754Z,101400
2017-01-24T06:26:27.339Z,101404
2017-01-24T06:27:27.493Z,101404
2017-01-24T06:28:27.487Z,101405
2017-01-24T06:29:27.493Z,101410
2017-01-24T06:30:26.946Z,101404
2017-01-24T06:31:27.004Z,101408
2017-01-24T06:32:27.016Z,101412
2017-01-24T06:33:27.132Z,101415
2017-01-24T06:34:27.739Z,101411
2017-01-24T06:35:27.247Z,101415
2017-01-24T06:36:27.831Z,101416
2017-01-24T06:37:27.429Z,101417
2017-01-24T06:38:27.977Z,101421
2017-01-24T06:39:27.518Z,101419
2017-01-24T06:40:27.599Z,101418
2017-01-24T06:41:28.170Z,101421
2017-01-24T06:42:27.700Z,101420
2017-01-24T06:43:28.249Z,101418
2017-01-24T06:44:27.768Z,101424
2017-01-24T06:45:28.410Z,101420
2017-01-24T06:46:27.991Z,101421
2017-01-24T06:47:27.970Z,101420
2017-01-24T06:48:28.536Z,101418
2017-01-24T06:49:28.622Z,101424
2017-01-24T06:50:28.715Z,101419
2017-01-24T06:51:28.727Z,101432
2017-01-24T06:52:28.879Z,101425
2017-01-24T06:53:28.280Z,101426
2017-01-24T06:54:28.308Z,101421
2017-01-24T06:55:28.364Z,101425
2017-01-24T06:56:28.445Z,101434
2017-01-24T06:57:28.465Z,101430
2017-01-24T06:58:28.559Z,101429
2017-01-24T06:59:29.051Z,101422
2017-01-24T07:00:28.599Z,101423
2017-01-24T07:01:28.668Z,101434
2017-01-24T07:02:29.252Z,101426
2017-01-24T07:03:28.805Z,101427
2017-01-24T07:04:28.764Z,101423
2017-01-24T07:05:28.977Z,101426
2017-01-24T07:06:28.974Z,101424
2017-01-24T07:07:30.192Z,101427
2017-01-24T07:08:29.047Z,101426
2017-01-24T07:09:29.724Z,101430
2017-01-24T07:10:29.676Z,101440
2017-01-24T07:11:29.185Z,101428
2017-01-24T07:12:29.822Z,101438
2017-01-24T07:13:29.313Z,101443
2017-01-24T07:14:30.022Z,101438
2017-01-24T07:15:30.000Z,101443
2017-01-24T07:16:30.628Z,101438
2017-01-24T07:17:30.130Z,101442
2017-01-24T07:18:30.181Z,101434
2017-01-24T07:19:29.746Z,101440
2017-01-24T07:20:30.391Z,101439
2017-01-24T07:21:31.575Z,101444
2017-01-24T07:22:29.879Z,101449
2017-01-24T07:23:30.533Z,101449
2017-01-24T07:24:30.675Z,101452
2017-01-24T07:25:31.352Z,101442
2017-01-24T07:26:30.190Z,101444
2017-01-24T07:27:31.321Z,101455
2017-01-24T07:28:30.868Z,101458
2017-01-24T07:29:30.359Z,101460
2017-01-24T07:30:30.900Z,101464
2017-01-24T07:31:30.513Z,101466
2017-01-24T07:32:31.056Z,101464
2017-01-24T07:33:30.494Z,101473
2017-01-24T07:34:31.126Z,101467
2017-01-24T07:35:30.674Z,101468
2017-01-24T07:36:30.735Z,101468
2017-01-24T07:37:30.688Z,101466
2017-01-24T07:38:30.849Z,101471
2017-01-24T07:39:32.373Z,101480
2017-01-24T07:40:31.624Z,101471
2017-01-24T07:41:30.898Z,101472
2017-01-24T07:42:31.439Z,101470
2017-01-24T07:43:32.250Z,101473
2017-01-24T07:44:32.133Z,101466
2017-01-24T07:45:31.029Z,101457
2017-01-24T07:46:31.037Z,101463
2017-01-24T07:47:32.446Z,101455
2017-01-24T07:48:32.200Z,101461
2017-01-24T07:49:31.805Z,101461
2017-01-24T07:50:32.387Z,101464
2017-01-24T07:51:31.863Z,101475
2017-01-24T07:52:31.441Z,101467
2017-01-24T07:53:31.938Z,101464
2017-01-24T07:54:32.001Z,101464
2017-01-24T07:55:31.556Z,101462
2017-01-24T07:56:32.123Z,101469
2017-01-24T07:57:32.091Z,101462
2017-01-24T07:58:31.676Z,101464
2017-01-24T07:59:31.758Z,101468
2017-01-24T08:00:32.274Z,101472
2017-01-24T08:01:31.771Z,101474
2017-01-24T08:02:32.353Z,101473
2017-01-24T08:03:31.918Z,101476
2017-01-24T08:04:31.937Z,101478
2017-01-24T08:05:32.588Z,101476
2017-01-24T08:06:32.151Z,101484
2017-01-24T08:07:32.168Z,101486
2017-01-24T08:08:32.667Z,101480
2017-01-24T08:09:32.382Z,101483
2017-01-24T08:10:32.984Z,101483
2017-01-24T08:11:32.892Z,101494
2017-01-24T08:12:33.044Z,101490
2017-01-24T08:13:32.450Z,101491
2017-01-24T08:14:33.172Z,101490
2017-01-24T08:15:33.521Z,101493
2017-01-24T08:16:34.532Z,101495
2017-01-24T08:17:35.023Z,101491
2017-01-24T08:18:33.932Z,101492
2017-01-24T08:19:34.807Z,101494
2017-01-24T08:20:33.246Z,101494
2017-01-24T08:21:36.067Z,101491
2017-01-24T08:22:33.848Z,101497
2017-01-24T08:23:35.213Z,101497
2017-01-24T08:24:34.634Z,101499
2017-01-24T08:25:36.588Z,101501
2017-01-24T08:26:34.168Z,101495
2017-01-24T08:27:33.942Z,101502
2017-01-24T08:28:33.449Z,101500
2017-01-24T08:29:34.891Z,101507
2017-01-24T08:30:33.049Z,101503
2017-01-24T08:31:34.943Z,101509
2017-01-24T08:32:34.128Z,101506
2017-01-24T08:33:34.309Z,101507
2017-01-24T08:34:34.347Z,101510
2017-01-24T08:35:33.261Z,101509
2017-01-24T08:36:36.829Z,101508
2017-01-24T08:37:33.373Z,101504
2017-01-24T08:38:34.795Z,101501
2017-01-24T08:39:33.956Z,101508
2017-01-24T08:40:34.870Z,101509
2017-01-24T08:41:33.968Z,101513
2017-01-24T08:42:34.660Z,101511
2017-01-24T08:43:35.009Z,101509
2017-01-24T08:44:34.079Z,101514
2017-01-24T08:45:33.588Z,101505
2017-01-24T08:46:33.597Z,101500
2017-01-24T08:47:34.805Z,101508
2017-01-24T08:48:34.381Z,101509
2017-01-24T08:49:35.688Z,101506
2017-01-24T08:50:36.341Z,101505
2017-01-24T08:51:37.666Z,101499
2017-01-24T08:52:35.150Z,101499
2017-01-24T08:53:35.200Z,101496
2017-01-24T08:54:38.244Z,101505
2017-01-24T08:55:35.757Z,101507
2017-01-24T08:56:36.135Z,101513
2017-01-24T08:57:34.090Z,101515
2017-01-24T08:58:34.599Z,101519
2017-01-24T08:59:34.853Z,101515
2017-01-24T09:00:34.742Z,101524
2017-01-24T09:01:34.316Z,101518
2017-01-24T09:02:35.541Z,101522
2017-01-24T09:03:34.927Z,101526
2017-01-24T09:04:34.959Z,101524
2017-01-24T09:05:35.025Z,101520
2017-01-24T09:06:34.551Z,101529
2017-01-24T09:07:35.785Z,101529
2017-01-24T09:08:34.662Z,101523
2017-01-24T09:09:35.377Z,101533
2017-01-24T09:10:36.889Z,101532
2017-01-24T09:11:36.128Z,101528
2017-01-24T09:12:34.994Z,101534
2017-01-24T09:13:36.221Z,101533
2017-01-24T09:14:36.864Z,101540
2017-01-24T09:15:38.520Z,101538
2017-01-24T09:16:37.041Z,101538
2017-01-24T09:17:37.865Z,101544
2017-01-24T09:18:37.231Z,101541
2017-01-24T09:19:37.237Z,101548
2017-01-24T09:20:38.011Z,101547
2017-01-24T09:21:36.235Z,101541
2017-01-24T09:22:36.352Z,101544
2017-01-24T09:23:36.231Z,101546
2017-01-24T09:24:36.409Z,101542
2017-01-24T09:25:35.769Z,101544
2017-01-24T09:26:36.309Z,101548
2017-01-24T09:27:36.732Z,101545
2017-01-24T09:28:35.985Z,101539
2017-01-24T09:29:36.471Z,101542
2017-01-24T09:30:37.168Z,101539
2017-01-24T09:31:36.036Z,101540
2017-01-24T09:32:36.331Z,101544
2017-01-24T09:33:36.813Z,101542
2017-01-24T09:34:37.651Z,101548
2017-01-24T09:35:36.798Z,101544
2017-01-24T09:36:36.842Z,101544
2017-01-24T09:37:36.860Z,101543
2017-01-24T09:38:36.856Z,101537
2017-01-24T09:39:37.049Z,101541
2017-01-24T09:40:36.424Z,101548
2017-01-24T09:41:36.444Z,101546
2017-01-24T09:42:36.575Z,101549
2017-01-24T09:43:36.506Z,101534
2017-01-24T09:44:36.569Z,101546
2017-01-24T09:45:37.284Z,101551
2017-01-24T09:46:36.652Z,101554
2017-01-24T09:47:37.967Z,101546
2017-01-24T09:48:37.079Z,101550
2017-01-24T09:49:40.934Z,101551
2017-01-24T09:50:38.835Z,101544
2017-01-24T09:51:38.179Z,101548
2017-01-24T09:52:38.122Z,101543
2017-01-24T09:53:37.631Z,101545
2017-01-24T09:54:39.178Z,101547
2017-01-24T09:55:37.106Z,101541
2017-01-24T09:56:39.210Z,101545
2017-01-24T09:57:38.777Z,101547
2017-01-24T09:58:39.172Z,101551
2017-01-24T09:59:38.654Z,101554
2017-01-24T10:00:39.110Z,101563
2017-01-24T10:01:39.875Z,101561
2017-01-24T10:02:37.821Z,101564
2017-01-24T10:03:37.238Z,101555
2017-01-24T10:04:37.795Z,101563
2017-01-24T10:05:37.300Z,101572
2017-01-24T10:06:37.409Z,101570
2017-01-24T10:07:38.526Z,101578
2017-01-24T10:08:37.538Z,101564
2017-01-24T10:09:38.702Z,101573
2017-01-24T10:10:38.061Z,101582
2017-01-24T10:11:37.672Z,101570
2017-01-24T10:12:37.727Z,101575
2017-01-24T10:13:38.302Z,101577
2017-01-24T10:14:38.351Z,101581
2017-01-24T10:15:37.846Z,101585
2017-01-24T10:16:38.930Z,101583
2017-01-24T10:17:38.488Z,101584
2017-01-24T10:18:38.506Z,101586
2017-01-24T10:19:39.961Z,101589
2017-01-24T10:20:38.577Z,101583
2017-01-24T10:21:38.620Z,101591
2017-01-24T10:22:38.637Z,101591
2017-01-24T10:23:38.651Z,101595
2017-01-24T10:24:38.746Z,101593
2017-01-24T10:25:38.778Z,101593
2017-01-24T10:26:40.278Z,101597
2017-01-24T10:27:38.901Z,101603
2017-01-24T10:28:39.150Z,101612
2017-01-24T10:29:39.548Z,101607
2017-01-24T10:30:40.167Z,101608
2017-01-24T10:31:39.337Z,101603
2017-01-24T10:32:38.670Z,101609
2017-01-24T10:33:39.978Z,101608
2017-01-24T10:34:41.012Z,101605
2017-01-24T10:35:41.625Z,101601
2017-01-24T10:36:39.530Z,101595
2017-01-24T10:37:38.967Z,101600
2017-01-24T10:38:39.061Z,101596
2017-01-24T10:39:39.064Z,101600
2017-01-24T10:40:40.461Z,101596
2017-01-24T10:41:39.754Z,101595
2017-01-24T10:42:39.286Z,101601
2017-01-24T10:43:39.344Z,101587
2017-01-24T10:44:39.422Z,101594
2017-01-24T10:45:39.528Z,101591
2017-01-24T10:46:40.047Z,101597
2017-01-24T10:47:40.011Z,101598
2017-01-24T10:48:40.151Z,101600
2017-01-24T10:49:39.683Z,101594
2017-01-24T10:50:40.260Z,101609
2017-01-24T10:51:39.792Z,101604
2017-01-24T10:52:41.146Z,101607
2017-01-24T10:53:40.478Z,101609
2017-01-24T10:54:41.025Z,101613
2017-01-24T10:55:41.244Z,101610
2017-01-24T10:56:40.059Z,101610
2017-01-24T10:57:41.149Z,101610
2017-01-24T10:58:41.392Z,101607
2017-01-24T10:59:41.442Z,101599
2017-01-24T11:00:40.296Z,101608
2017-01-24T11:01:42.155Z,101609
2017-01-24T11:02:41.054Z,101608
2017-01-24T11:03:40.590Z,101607
2017-01-24T11:04:41.152Z,101609
2017-01-24T11:05:41.862Z,101615
2017-01-24T11:06:41.957Z,101610
2017-01-24T11:07:40.725Z,101608
2017-01-24T11:08:41.300Z,101607
2017-01-24T11:09:40.742Z,101606
2017-01-24T11:10:40.820Z,101597
2017-01-24T11:11:40.897Z,101599
2017-01-24T11:12:42.091Z,101602
2017-01-24T11:13:41.526Z,101603
2017-01-24T11:14:41.056Z,101600
2017-01-24T11:15:41.624Z,101597
2017-01-24T11:16:41.749Z,101613
2017-01-24T11:17:41.264Z,101610
2017-01-24T11:18:41.891Z,101613
2017-01-24T11:19:42.593Z,101618
2017-01-24T11:20:41.994Z,101607
2017-01-24T11:21:42.558Z,101605
2017-01-24T11:22:42.234Z,101606
2017-01-24T11:23:41.552Z,101611
2017-01-24T11:24:42.097Z,101608
2017-01-24T11:25:42.159Z,101611
2017-01-24T11:26:41.639Z,101608
2017-01-24T11:27:42.256Z,101610
2017-01-24T11:28:41.777Z,101611
2017-01-24T11:29:42.320Z,101609
2017-01-24T11:30:45.340Z,101608
2017-01-24T11:31:43.867Z,101606
2017-01-24T11:32:42.054Z,101608
2017-01-24T11:33:42.689Z,101612
2017-01-24T11:34:43.156Z,101608
2017-01-24T11:35:42.881Z,101604
2017-01-24T11:36:42.291Z,101609
2017-01-24T11:37:42.179Z,101614
2017-01-24T11:38:42.747Z,101606
2017-01-24T11:39:42.811Z,101608
2017-01-24T11:40:42.546Z,101610
2017-01-24T11:41:42.610Z,101610
2017-01-24T11:42:43.077Z,101610
2017-01-24T11:43:43.421Z,101610
2017-01-24T11:44:42.621Z,101610
2017-01-24T11:45:42.578Z,101606
2017-01-24T11:46:43.428Z,101614
2017-01-24T11:47:43.277Z,101603
2017-01-24T11:48:42.772Z,101603
2017-01-24T11:49:44.579Z,101605
2017-01-24T11:50:43.396Z,101602
2017-01-24T11:51:43.754Z,101602
2017-01-24T11:52:42.975Z,101603
2017-01-24T11:53:45.114Z,101601
2017-01-24T11:54:44.696Z,101603
2017-01-24T11:55:45.583Z,101592
2017-01-24T11:56:43.173Z,101597
2017-01-24T11:57:43.719Z,101597
2017-01-24T11:58:43.199Z,101596
2017-01-24T11:59:43.946Z,101599
2017-01-24T12:00:44.144Z,101598
2017-01-24T12:01:43.996Z,101600
2017-01-24T12:02:43.370Z,101599
2017-01-24T12:03:43.562Z,101595
2017-01-24T12:04:43.578Z,101598
2017-01-24T12:05:44.893Z,101595
2017-01-24T12:06:44.340Z,101597
2017-01-24T12:07:43.616Z,101590
2017-01-24T12:08:43.687Z,101596
2017-01-24T12:09:43.782Z,101598
2017-01-24T12:10:45.207Z,101596
2017-01-24T12:11:46.332Z,101596
2017-01-24T12:12:46.460Z,101594
2017-01-24T12:13:44.340Z,101593
2017-01-24T12:14:43.846Z,101597
2017-01-24T12:15:43.953Z,101597
2017-01-24T12:16:44.521Z,101588
2017-01-24T12:17:45.058Z,101598
2017-01-24T12:18:44.729Z,101595
2017-01-24T12:19:44.168Z,101596
2017-01-24T12:20:44.730Z,101602
2017-01-24T12:21:44.851Z,101596
2017-01-24T12:22:45.586Z,101593
2017-01-24T12:23:44.936Z,101599
2017-01-24T12:24:45.068Z,101602
2017-01-24T12:25:45.634Z,101599
2017-01-24T12:26:44.615Z,101602
2017-01-24T12:27:44.591Z,101602
2017-01-24T12:28:44.651Z,101594